Time;durP1;ratioP1;P1;durP2;ratioP2;P2;SDS_P1;SDS_P2;PMS_P1;PMS_P2;Temp;Humidity;BMP_temperature;BMP_pressure;BME280_temperature;BME280_humidity;BME280_pressure;Samples;Min_cycle;Max_cycle;Signal;HPM_P1;HPM_P2
2022/04/12 00:00:54;;;;;;;12.68;8.35;;;;;;;8.56;60.21;101046.53;5043389;28;20045;-70
2022/04/12 00:03:19;;;;;;;13.88;8.15;;;;;;;8.57;60.15;101048.22;5045496;28;20059;-70
2022/04/12 00:05:45;;;;;;;13.57;8.90;;;;;;;8.58;60.69;101041.69;5043274;28;20074;-70
2022/04/12 00:08:10;;;;;;;11.55;8.27;;;;;;;8.61;60.88;101031.34;5044760;28;20029;-70
2022/04/12 00:10:36;;;;;;;12.18;8.52;;;;;;;8.60;60.88;101027.78;5045360;28;20108;-70
2022/04/12 00:13:03;;;;;;;12.77;8.32;;;;;;;8.60;60.40;101016.81;5045703;28;20040;-71
2022/04/12 00:15:28;;;;;;;12.05;8.82;;;;;;;8.62;59.79;101003.78;5045534;28;20029;-63
2022/04/12 00:20:38;;;;;;;12.93;8.15;;;;;;;8.63;60.33;101021.06;5044784;28;20671;-68
2022/04/12 00:23:04;;;;;;;14.98;9.13;;;;;;;8.62;59.80;101005.66;5044485;28;20714;-71
2022/04/12 00:25:30;;;;;;;12.73;8.07;;;;;;;8.65;59.47;101008.81;5044916;28;20112;-70
2022/04/12 00:27:57;;;;;;;14.65;8.38;;;;;;;8.67;58.84;101012.19;5045425;28;20095;-70
2022/04/12 00:30:24;;;;;;;13.18;8.15;;;;;;;8.68;59.28;101007.56;5045083;28;20029;-69
2022/04/12 00:32:50;;;;;;;12.93;8.10;;;;;;;8.67;58.59;100998.50;5045053;28;20025;-68
2022/04/12 00:35:17;;;;;;;13.38;8.55;;;;;;;8.67;58.67;100997.63;5043957;28;20029;-70
2022/04/12 00:37:43;;;;;;;13.60;8.05;;;;;;;8.67;59.13;101008.59;5043689;28;20013;-69
2022/04/12 00:40:08;;;;;;;11.93;8.07;;;;;;;8.64;58.81;100995.34;5044767;28;20044;-69
2022/04/12 00:42:34;;;;;;;13.13;7.95;;;;;;;8.62;59.06;101003.78;5044491;28;20149;-69
2022/04/12 00:44:59;;;;;;;11.85;8.07;;;;;;;8.59;58.81;100996.00;5044544;28;20079;-69
2022/04/12 00:47:25;;;;;;;14.10;9.00;;;;;;;8.58;59.28;101005.25;5044440;28;20040;-69
2022/04/12 00:49:50;;;;;;;13.98;8.23;;;;;;;8.56;59.05;101005.44;5044261;28;20029;-70
2022/04/12 00:52:16;;;;;;;12.95;8.10;;;;;;;8.53;59.58;101000.44;5042957;28;20024;-69
2022/04/12 00:54:42;;;;;;;12.93;7.20;;;;;;;8.51;59.35;101010.72;5044557;28;20025;-69
2022/04/12 00:57:08;;;;;;;12.65;8.40;;;;;;;8.47;59.81;101011.41;5043954;28;20064;-69
2022/04/12 00:59:35;;;;;;;12.85;7.85;;;;;;;8.45;59.56;101000.63;5026544;28;20508;-69
2022/04/12 01:02:05;;;;;;;12.48;7.85;;;;;;;8.46;59.31;100998.75;5044146;28;20029;-69
2022/04/12 01:04:31;;;;;;;11.20;7.45;;;;;;;8.46;60.04;101009.69;5044394;28;20033;-69
2022/04/12 01:06:57;;;;;;;12.57;7.40;;;;;;;8.43;60.37;101015.59;5043156;28;20055;-69
2022/04/12 01:09:25;;;;;;;14.40;7.85;;;;;;;8.39;59.49;101017.06;5044282;28;20037;-68
2022/04/12 01:11:52;;;;;;;13.02;8.15;;;;;;;8.36;59.54;101004.63;5040081;28;20033;-69
2022/04/12 01:14:17;;;;;;;11.43;8.55;;;;;;;8.34;60.00;101004.00;5051543;22;20107;-69
2022/04/12 01:16:43;;;;;;;13.93;8.70;;;;;;;8.28;60.65;101000.22;5044685;28;20394;-69
2022/04/12 01:19:09;;;;;;;14.35;7.97;;;;;;;8.24;60.71;100993.47;5043946;28;20017;-69
2022/04/12 01:22:00;;;;;;;13.07;7.80;;;;;;;8.20;60.87;100999.59;5043082;28;20059;-69
2022/04/12 01:24:26;;;;;;;12.80;8.27;;;;;;;8.10;61.51;100997.28;5042755;28;20025;-70
2022/04/12 01:26:51;;;;;;;15.43;8.82;;;;;;;8.01;61.67;100996.66;5044385;28;20037;-69
2022/04/12 01:29:16;;;;;;;13.02;8.23;;;;;;;7.98;62.09;101001.69;5043900;28;20033;-70
2022/04/12 01:31:42;;;;;;;11.75;7.68;;;;;;;7.98;61.18;101001.69;5044288;28;20024;-70
2022/04/12 01:34:07;;;;;;;12.07;8.30;;;;;;;7.94;61.34;101000.44;5043973;28;20560;-70
2022/04/12 01:36:32;;;;;;;12.98;8.18;;;;;;;7.93;60.95;100993.28;5042190;28;20353;-70
2022/04/12 01:38:58;;;;;;;13.82;8.75;;;;;;;7.87;61.77;100992.22;5044708;28;20063;-69
2022/04/12 01:41:23;;;;;;;14.88;7.63;;;;;;;7.82;62.23;100996.66;5042945;28;20424;-69
2022/04/12 01:43:48;;;;;;;12.15;7.75;;;;;;;7.83;61.64;100992.84;5043527;28;20037;-69
2022/04/12 01:46:14;;;;;;;14.60;8.55;;;;;;;7.81;61.81;100984.88;5043342;28;20035;-70
2022/04/12 01:48:39;;;;;;;11.75;8.32;;;;;;;7.79;61.54;100986.94;5043725;28;20379;-69
2022/04/12 01:51:04;;;;;;;12.50;8.02;;;;;;;7.78;62.15;100990.75;5042000;28;20029;-70
2022/04/12 01:53:30;;;;;;;12.27;8.93;;;;;;;7.75;62.18;100989.25;5043798;28;20032;-69
2022/04/12 01:55:55;;;;;;;12.05;8.40;;;;;;;7.71;62.82;100993.47;5044007;28;20166;-70
2022/04/12 01:58:20;;;;;;;12.68;8.38;;;;;;;7.73;62.05;100988.63;5043976;28;20032;-70
2022/04/12 02:00:45;;;;;;;14.20;9.18;;;;;;;7.71;62.49;100979.81;5043156;28;20506;-70
2022/04/12 02:03:11;;;;;;;12.73;7.97;;;;;;;7.69;62.81;100981.88;5042928;28;20037;-69
2022/04/12 02:05:37;;;;;;;14.43;8.50;;;;;;;7.67;62.72;100974.97;5042408;28;20158;-69
2022/04/12 02:08:02;;;;;;;14.40;8.52;;;;;;;7.61;62.79;100962.97;5043302;28;20027;-70
2022/04/12 02:10:28;;;;;;;13.65;8.43;;;;;;;7.62;62.68;100963.81;5043234;28;20033;-70
2022/04/12 02:12:53;;;;;;;15.27;8.82;;;;;;;7.57;63.66;100975.38;5045834;28;20112;-70
2022/04/12 02:15:18;;;;;;;14.88;9.80;;;;;;;7.57;63.50;100982.72;5043140;28;20060;-69
2022/04/12 02:17:44;;;;;;;14.43;9.43;;;;;;;7.56;63.76;100979.16;5043495;28;20025;-69
2022/04/12 02:20:09;;;;;;;12.48;8.60;;;;;;;7.55;63.27;100980.19;5042590;28;20162;-69
2022/04/12 02:22:36;;;;;;;15.73;9.38;;;;;;;7.55;63.15;100985.66;5041794;28;20040;-69
2022/04/12 02:25:02;;;;;;;12.73;8.98;;;;;;;7.54;63.46;100979.34;5042927;28;20037;-69
2022/04/12 02:27:27;;;;;;;13.32;9.73;;;;;;;7.54;63.92;100983.97;5042877;28;20928;-70
2022/04/12 02:29:52;;;;;;;15.48;9.07;;;;;;;7.53;63.09;100982.28;5043458;28;20025;-69
2022/04/12 02:32:18;;;;;;;14.95;9.35;;;;;;;7.52;63.84;100983.34;5041978;28;20577;-69
2022/04/12 02:34:43;;;;;;;15.35;9.82;;;;;;;7.49;63.75;100984.59;5042905;28;20032;-69
2022/04/12 02:37:08;;;;;;;15.63;9.65;;;;;;;7.50;63.51;100977.22;5040647;28;20028;-69
2022/04/12 02:39:34;;;;;;;15.98;9.10;;;;;;;7.49;63.76;100975.56;5024496;28;20025;-69
2022/04/12 02:41:59;;;;;;;15.85;10.05;;;;;;;7.48;63.27;100968.41;5043437;28;20033;-69
2022/04/12 02:44:24;;;;;;;17.27;10.55;;;;;;;7.45;63.85;100969.69;5043089;28;20036;-69
2022/04/12 02:46:50;;;;;;;17.17;11.10;;;;;;;7.39;64.24;100972.38;5042918;28;20037;-69
2022/04/12 02:49:15;;;;;;;14.82;9.48;;;;;;;7.36;65.04;100970.09;5042462;28;20333;-69
2022/04/12 02:51:40;;;;;;;15.55;9.45;;;;;;;7.35;63.89;100969.25;5042274;28;20036;-69
2022/04/12 02:54:05;;;;;;;16.35;9.95;;;;;;;7.31;64.20;100961.66;5042754;28;20025;-69
2022/04/12 02:56:31;;;;;;;16.63;10.50;;;;;;;7.31;64.21;100956.19;5042429;28;20446;-69
2022/04/12 02:58:56;;;;;;;19.40;10.68;;;;;;;7.27;65.10;100962.06;5043470;28;20032;-69
2022/04/12 03:01:21;;;;;;;15.57;10.57;;;;;;;7.26;64.56;100954.09;5041915;28;20387;-70
2022/04/12 03:03:46;;;;;;;16.45;10.30;;;;;;;7.20;65.37;100944.81;5042361;28;20045;-69
2022/04/12 03:06:12;;;;;;;18.58;10.90;;;;;;;7.18;65.02;100943.34;5041353;28;20045;-68
2022/04/12 03:08:37;;;;;;;16.95;9.98;;;;;;;7.15;65.71;100939.13;5042994;28;20032;-69
2022/04/12 03:11:02;;;;;;;18.60;10.77;;;;;;;7.13;65.50;100940.38;5041452;28;20083;-69
2022/04/12 03:13:28;;;;;;;17.00;10.80;;;;;;;7.07;65.59;100942.03;5042612;28;20086;-69
2022/04/12 03:15:53;;;;;;;17.65;11.02;;;;;;;7.07;65.66;100935.75;5042407;28;20033;-69
2022/04/12 03:18:18;;;;;;;18.67;10.82;;;;;;;7.04;65.71;100934.25;5042615;28;20025;-69
2022/04/12 03:20:45;;;;;;;20.25;11.20;;;;;;;7.03;66.12;100927.13;5022357;28;20025;-69
2022/04/12 03:23:10;;;;;;;18.15;11.13;;;;;;;7.05;65.44;100922.31;5042613;28;20025;-69
2022/04/12 03:25:35;;;;;;;19.55;10.88;;;;;;;7.03;65.85;100929.84;5042387;28;20502;-69
2022/04/12 03:28:02;;;;;;;17.70;11.52;;;;;;;7.02;66.08;100920.81;5042136;28;20170;-69
2022/04/12 03:30:27;;;;;;;16.50;11.13;;;;;;;7.00;66.12;100917.47;5041922;28;20020;-69
2022/04/12 03:32:53;;;;;;;17.25;11.38;;;;;;;7.01;65.91;100912.84;5042623;28;20029;-69
2022/04/12 03:35:19;;;;;;;17.85;11.15;;;;;;;7.00;65.96;100908.44;5042240;28;20040;-69
2022/04/12 03:37:44;;;;;;;17.52;10.93;;;;;;;6.96;66.62;100926.25;5027790;28;20167;-69
2022/04/12 03:40:10;;;;;;;18.88;11.38;;;;;;;6.93;67.27;100926.66;5020890;28;20100;-69
2022/04/12 03:42:35;;;;;;;19.85;12.07;;;;;;;6.91;66.57;100915.94;5046219;28;20372;-69
2022/04/12 03:45:01;;;;;;;14.88;10.93;;;;;;;6.88;66.90;100913.63;5045607;28;20037;-69
2022/04/12 03:47:26;;;;;;;20.55;12.15;;;;;;;6.88;66.51;100919.09;5046093;28;20084;-69
2022/04/12 03:49:51;;;;;;;20.60;12.02;;;;;;;6.85;66.85;100922.25;5045814;28;20079;-69
2022/04/12 03:52:16;;;;;;;20.52;11.52;;;;;;;6.85;67.34;100924.13;5044868;28;20050;-69
2022/04/12 03:54:42;;;;;;;19.25;12.55;;;;;;;6.80;67.33;100927.47;5045794;28;20040;-69
2022/04/12 03:57:07;;;;;;;21.30;12.75;;;;;;;6.77;67.31;100930.59;5045951;28;20529;-69
2022/04/12 03:59:33;;;;;;;19.08;12.07;;;;;;;6.80;66.95;100918.44;5046936;28;20032;-69
2022/04/12 04:01:58;;;;;;;20.15;11.85;;;;;;;6.78;66.74;100902.25;5045602;28;20431;-69
2022/04/12 04:04:23;;;;;;;18.77;12.27;;;;;;;6.76;67.07;100894.28;5045731;28;20455;-69
2022/04/12 04:06:49;;;;;;;18.67;11.63;;;;;;;6.73;67.31;100900.13;5044799;28;20175;-70
2022/04/12 04:09:15;;;;;;;22.75;13.38;;;;;;;6.73;67.44;100899.28;5046095;28;20021;-69
2022/04/12 04:11:40;;;;;;;22.15;12.48;;;;;;;6.73;67.74;100900.13;5044335;28;20098;-69
2022/04/12 04:14:06;;;;;;;17.83;11.82;;;;;;;6.75;67.64;100900.78;5045459;28;20094;-69
2022/04/12 04:16:32;;;;;;;21.60;11.40;;;;;;;6.81;68.20;100895.56;5043545;28;20112;-69
2022/04/12 04:18:57;;;;;;;18.20;11.63;;;;;;;6.86;68.34;100901.25;5045650;28;20539;-69
2022/04/12 04:21:22;;;;;;;21.30;12.70;;;;;;;6.91;68.29;100898.72;5044509;28;20032;-69
2022/04/12 04:23:48;;;;;;;23.90;13.25;;;;;;;6.96;68.15;100918.91;5045611;28;20037;-69
2022/04/12 04:26:13;;;;;;;20.95;13.10;;;;;;;7.01;67.97;100908.22;5045098;28;20049;-69
2022/04/12 04:28:41;;;;;;;20.30;13.32;;;;;;;7.06;67.55;100909.50;5045265;28;20091;-69
2022/04/12 04:31:07;;;;;;;21.05;11.80;;;;;;;7.10;67.68;100910.78;5045652;28;20086;-69
2022/04/12 04:33:33;;;;;;;19.65;13.07;;;;;;;7.12;68.21;100914.13;5045806;28;20475;-70
2022/04/12 04:35:58;;;;;;;19.88;13.40;;;;;;;7.13;67.27;100908.44;5043712;28;20115;-69
2022/04/12 04:38:23;;;;;;;22.85;13.00;;;;;;;7.11;68.04;100917.91;5044373;28;20017;-70
2022/04/12 04:40:49;;;;;;;20.10;11.93;;;;;;;7.08;68.09;100919.16;5045372;28;20035;-69
2022/04/12 04:43:15;;;;;;;21.60;13.52;;;;;;;7.08;67.48;100918.31;5045189;28;20143;-70
2022/04/12 04:45:43;;;;;;;22.60;13.48;;;;;;;7.08;67.44;100902.75;5043382;28;20792;-70
2022/04/12 04:48:08;;;;;;;20.85;12.88;;;;;;;7.10;67.27;100905.31;5043058;28;20107;-69
2022/04/12 04:50:34;;;;;;;22.90;13.70;;;;;;;7.02;68.05;100904.44;5043883;28;20108;-70
2022/04/12 04:53:04;;;;;;;22.75;14.27;;;;;;;6.96;68.78;100915.34;5044913;28;20052;-69
2022/04/12 04:55:30;;;;;;;20.48;12.98;;;;;;;6.95;68.16;100919.13;5044726;28;20035;-63
2022/04/12 04:57:59;;;;;;;22.67;13.85;;;;;;;6.94;68.89;100931.06;5044808;28;20060;-70
2022/04/12 05:00:29;;;;;;;23.73;14.25;;;;;;;6.95;68.55;100939.06;5044522;28;20074;-70
2022/04/12 05:02:55;;;;;;;23.08;13.82;;;;;;;7.01;67.57;100938.25;5043317;28;20399;-70
2022/04/12 05:05:21;;;;;;;22.33;13.00;;;;;;;7.15;67.90;100938.31;5042703;28;20036;-71
2022/04/12 05:07:49;;;;;;;24.27;13.93;;;;;;;7.28;66.82;100941.03;5042203;28;20025;-70
2022/04/12 05:10:25;;;;;;;22.35;13.75;;;;;;;7.37;66.62;100950.75;5042545;28;20357;-70
2022/04/12 05:12:50;;;;;;;27.17;14.55;;;;;;;7.45;66.31;100953.28;5044716;28;20961;-71
2022/04/12 05:15:16;;;;;;;25.33;14.50;;;;;;;7.53;66.86;100944.03;5044224;28;20049;-71
2022/04/12 05:17:48;;;;;;;25.55;14.38;;;;;;;7.59;67.22;100939.63;5042873;28;20033;-70
2022/04/12 05:20:13;;;;;;;26.40;15.15;;;;;;;7.59;67.21;100935.00;5029359;28;20021;-70
2022/04/12 05:22:39;;;;;;;23.13;14.13;;;;;;;7.62;67.19;100931.00;5044752;28;20347;-70
2022/04/12 05:25:04;;;;;;;24.70;13.93;;;;;;;7.65;67.72;100936.88;5044102;28;20054;-70
2022/04/12 05:27:33;;;;;;;24.25;14.40;;;;;;;7.70;67.39;100934.38;5026620;28;20040;-69
2022/04/12 05:30:00;;;;;;;22.42;15.00;;;;;;;7.76;67.41;100933.56;5043965;28;20355;-70
2022/04/12 05:32:25;;;;;;;25.58;14.55;;;;;;;7.82;67.32;100939.22;5041341;28;20043;-70
2022/04/12 05:34:51;;;;;;;23.08;14.10;;;;;;;7.87;66.63;100933.97;5042942;28;20021;-70
2022/04/12 05:37:17;;;;;;;27.67;14.50;;;;;;;7.92;66.94;100921.34;5043845;28;20037;-70
2022/04/12 05:39:42;;;;;;;23.42;14.23;;;;;;;7.99;67.06;100921.31;5044007;28;20626;-69
2022/04/12 05:42:08;;;;;;;25.80;14.98;;;;;;;7.99;66.59;100919.44;5039537;28;20017;-69
2022/04/12 05:44:34;;;;;;;23.60;14.93;;;;;;;7.99;67.65;100924.06;5033502;28;20037;-72
2022/04/12 05:47:01;;;;;;;25.80;14.88;;;;;;;7.96;66.57;100924.50;5043669;28;20116;-69
2022/04/12 05:49:27;;;;;;;26.33;15.20;;;;;;;7.92;67.01;100920.50;5043668;28;20086;-69
2022/04/12 05:51:52;;;;;;;27.17;17.35;;;;;;;7.89;67.30;100931.84;5042329;28;20232;-69
2022/04/12 05:54:17;;;;;;;25.17;15.35;;;;;;;7.91;66.11;100932.50;5043302;28;20043;-69
2022/04/12 05:56:43;;;;;;;27.67;14.85;;;;;;;7.93;66.05;100935.84;5043809;28;20025;-69
2022/04/12 05:59:08;;;;;;;26.42;15.27;;;;;;;7.95;66.09;100939.19;5043407;28;20438;-69
2022/04/12 06:01:34;;;;;;;24.05;15.35;;;;;;;7.98;66.91;100944.25;5043753;28;20032;-70
2022/04/12 06:03:59;;;;;;;26.88;15.48;;;;;;;8.02;66.87;100940.91;5042873;28;20021;-72
2022/04/12 06:06:24;;;;;;;27.08;16.15;;;;;;;8.06;66.55;100939.44;5023513;28;20033;-70
2022/04/12 06:08:50;;;;;;;26.63;15.93;;;;;;;8.13;66.67;100936.69;5043561;28;20037;-71
2022/04/12 06:11:15;;;;;;;26.40;15.65;;;;;;;8.23;66.18;100939.81;5040618;28;20053;-71
2022/04/12 06:13:40;;;;;;;25.98;16.38;;;;;;;8.32;66.45;100938.53;5042601;28;20048;-70
2022/04/12 06:16:06;;;;;;;30.73;16.10;;;;;;;8.36;65.95;100930.75;5040680;28;20097;-70
2022/04/12 06:18:31;;;;;;;27.70;16.10;;;;;;;8.45;65.55;100939.59;5042927;28;20028;-71
2022/04/12 06:20:56;;;;;;;26.90;16.85;;;;;;;8.52;65.72;100938.53;5041817;28;20242;-71
2022/04/12 06:23:22;;;;;;;32.25;17.85;;;;;;;8.61;66.03;100941.84;5040597;28;20033;-71
2022/04/12 06:25:47;;;;;;;27.20;16.52;;;;;;;8.74;66.51;100951.94;5040843;28;20029;-71
2022/04/12 06:28:12;;;;;;;29.50;16.40;;;;;;;8.90;65.67;100945.97;5043071;28;20073;-69
2022/04/12 06:30:37;;;;;;;23.40;15.55;;;;;;;9.02;65.32;100933.28;5025102;28;20971;-69
2022/04/12 06:33:03;;;;;;;27.65;16.42;;;;;;;9.17;63.61;100935.69;5042646;28;20040;-70
2022/04/12 06:35:28;;;;;;;27.85;16.45;;;;;;;9.34;63.20;100925.09;5041388;28;20207;-70
2022/04/12 06:37:56;;;;;;;29.05;15.30;;;;;;;9.47;62.82;100941.41;5043267;28;20025;-70
2022/04/12 06:40:22;;;;;;;28.60;15.82;;;;;;;9.60;63.22;100935.03;5042724;28;20406;-70
2022/04/12 06:42:49;;;;;;;29.90;16.60;;;;;;;9.80;61.82;100941.19;5043092;28;20021;-70
2022/04/12 06:45:15;;;;;;;29.45;16.70;;;;;;;10.04;61.96;100928.53;5042164;28;20025;-70
2022/04/12 06:47:41;;;;;;;29.55;16.67;;;;;;;10.30;60.89;100941.19;5043288;28;20079;-69
2022/04/12 06:50:08;;;;;;;27.85;16.83;;;;;;;10.63;60.00;100931.75;5041472;28;20801;-68
2022/04/12 06:52:33;;;;;;;27.23;16.33;;;;;;;11.20;58.32;100921.28;5025304;28;20040;-68
2022/04/12 06:54:59;;;;;;;24.38;14.68;;;;;;;11.63;56.66;100920.22;5042864;28;20021;-69
2022/04/12 06:57:24;;;;;;;29.35;16.25;;;;;;;11.94;55.90;100913.59;5040360;28;20087;-71
2022/04/12 06:59:51;;;;;;;25.02;16.17;;;;;;;12.22;55.32;100921.16;5042395;28;20479;-71
2022/04/12 07:02:17;;;;;;;27.50;15.52;;;;;;;12.32;54.20;100918.66;5042290;28;20033;-69
2022/04/12 07:04:42;;;;;;;25.33;16.73;;;;;;;12.18;54.67;100923.56;5042509;28;20024;-69
2022/04/12 07:07:08;;;;;;;28.40;16.83;;;;;;;12.29;53.71;100915.53;5041792;28;20060;-69
2022/04/12 07:09:34;;;;;;;28.13;17.52;;;;;;;12.46;54.76;100917.28;5044055;28;20025;-68
2022/04/12 07:12:00;;;;;;;27.45;16.15;;;;;;;12.91;54.20;100913.84;5041253;28;20032;-68
2022/04/12 07:14:28;;;;;;;25.45;16.45;;;;;;;13.47;52.82;100916.88;5041329;28;20171;-68
2022/04/12 07:16:54;;;;;;;29.08;16.52;;;;;;;14.09;51.03;100911.31;5043173;28;20134;-69
2022/04/12 07:19:19;;;;;;;27.42;15.90;;;;;;;14.90;49.05;100919.06;5042340;28;20148;-70
2022/04/12 07:21:44;;;;;;;27.73;17.02;;;;;;;15.85;46.11;100909.31;5040946;28;20885;-69
2022/04/12 07:24:10;;;;;;;26.38;16.08;;;;;;;16.49;43.85;100919.47;5038780;28;20048;-66
2022/04/12 07:26:36;;;;;;;26.00;16.42;;;;;;;17.09;42.56;100915.34;5043149;28;20115;-64
2022/04/12 07:29:02;;;;;;;27.77;16.40;;;;;;;17.25;42.48;100921.75;5043522;28;20031;-67
2022/04/12 07:31:28;;;;;;;25.67;15.50;;;;;;;17.25;41.36;100927.31;5041649;28;20370;-69
2022/04/12 07:33:53;;;;;;;22.60;14.65;;;;;;;17.62;40.91;100911.28;5041130;28;20036;-67
2022/04/12 07:36:19;;;;;;;28.05;15.73;;;;;;;18.10;39.66;100909.09;5041594;28;20087;-67
2022/04/12 07:38:45;;;;;;;24.05;15.32;;;;;;;17.49;39.51;100906.28;5043953;28;20483;-66
2022/04/12 07:41:10;;;;;;;24.67;14.13;;;;;;;17.36;40.98;100917.91;5041819;28;20060;-71
2022/04/12 07:43:38;;;;;;;23.27;14.50;;;;;;;17.25;41.21;100917.03;5041664;28;20029;-67
2022/04/12 07:46:04;;;;;;;24.88;13.95;;;;;;;16.92;40.87;100898.88;5043166;28;20041;-68
2022/04/12 07:48:30;;;;;;;24.35;13.25;;;;;;;17.06;43.06;100910.31;5041770;28;20036;-69
2022/04/12 07:50:55;;;;;;;22.25;13.55;;;;;;;17.88;41.29;100902.97;5041510;28;20107;-68
2022/04/12 07:53:20;;;;;;;21.15;13.13;;;;;;;19.04;39.60;100903.00;5044745;28;20033;-68
2022/04/12 07:55:46;;;;;;;22.23;13.30;;;;;;;18.81;38.61;100910.06;5041856;28;20025;-70
2022/04/12 07:58:11;;;;;;;22.08;13.13;;;;;;;18.26;39.92;100915.47;5042033;28;20029;-68
2022/04/12 08:00:37;;;;;;;21.30;13.40;;;;;;;18.12;41.02;100906.03;5036905;28;20454;-69
2022/04/12 08:03:02;;;;;;;20.05;12.85;;;;;;;18.03;40.13;100907.69;5027727;28;20017;-70
2022/04/12 08:05:27;;;;;;;19.65;12.02;;;;;;;18.22;40.50;100906.03;5037579;28;20040;-70
2022/04/12 08:07:53;;;;;;;21.35;11.82;;;;;;;18.08;40.87;100907.69;5034869;28;20029;-69
2022/04/12 08:10:19;;;;;;;19.58;11.85;;;;;;;17.55;41.33;100910.72;5035882;28;20514;-69
2022/04/12 08:12:46;;;;;;;15.70;10.90;;;;;;;16.92;42.13;100907.22;5038930;28;20025;-69
2022/04/12 08:15:13;;;;;;;20.08;11.07;;;;;;;16.63;43.40;100917.06;5013506;28;20068;-68
2022/04/12 08:17:38;;;;;;;18.05;10.30;;;;;;;16.64;44.58;100918.72;5018513;28;20026;-69
2022/04/12 08:20:08;;;;;;;16.83;9.63;;;;;;;16.81;43.56;100909.13;5021281;28;20026;-69
2022/04/12 08:22:34;;;;;;;17.52;9.57;;;;;;;16.81;43.74;100919.38;5022847;28;20030;-68
2022/04/12 08:24:59;;;;;;;17.20;10.65;;;;;;;16.77;42.64;100909.91;5023093;28;20034;-68
2022/04/12 08:27:25;;;;;;;16.95;9.30;;;;;;;17.08;42.51;100914.50;5019404;28;20112;-69
2022/04/12 08:29:51;;;;;;;15.50;10.07;;;;;;;17.64;41.44;100914.63;5019465;28;20025;-68
2022/04/12 08:32:17;;;;;;;17.25;9.52;;;;;;;17.96;42.63;100912.72;5021715;28;20065;-68
2022/04/12 08:34:43;;;;;;;15.25;8.45;;;;;;;18.13;41.09;100902.97;5021602;28;20037;-69
2022/04/12 08:37:08;;;;;;;13.52;8.20;;;;;;;18.48;41.69;100911.53;5020134;28;20067;-69
2022/04/12 08:39:33;;;;;;;14.95;8.32;;;;;;;18.55;39.10;100907.34;5024702;28;20443;-69
2022/04/12 08:42:03;;;;;;;14.43;8.13;;;;;;;18.78;39.11;100919.81;5024436;28;20033;-69
2022/04/12 08:44:29;;;;;;;14.38;7.85;;;;;;;18.93;38.37;100908.63;5024652;28;20033;-69
2022/04/12 08:46:56;;;;;;;15.52;7.82;;;;;;;19.51;38.44;100904.38;5023280;28;20039;-69
2022/04/12 08:49:24;;;;;;;12.07;6.80;;;;;;;20.01;37.75;100892.03;5019919;28;20175;-68
2022/04/12 08:51:50;;;;;;;14.05;7.10;;;;;;;21.18;35.86;100879.53;5025153;28;20077;-69
2022/04/12 08:54:19;;;;;;;12.30;6.72;;;;;;;22.28;35.21;100873.59;5024687;28;20030;-67
2022/04/12 08:56:48;;;;;;;12.15;5.97;;;;;;;22.26;33.32;100873.91;5025089;28;20372;-67
2022/04/12 08:59:13;;;;;;;12.52;6.47;;;;;;;22.11;32.63;100871.41;5024542;28;20057;-67
2022/04/12 09:01:39;;;;;;;9.63;4.90;;;;;;;23.01;33.01;100881.13;5024705;28;20171;-69
2022/04/12 09:04:04;;;;;;;10.73;5.25;;;;;;;23.20;30.80;100874.53;5021977;28;20021;-67
2022/04/12 09:06:30;;;;;;;9.02;4.80;;;;;;;23.73;30.91;100879.47;5018915;28;20040;-68
2022/04/12 09:09:08;;;;;;;8.90;4.53;;;;;;;23.74;29.61;100876.34;5010075;28;20545;-69
2022/04/12 09:11:35;;;;;;;11.35;4.82;;;;;;;24.13;29.51;100866.38;5021684;28;20071;-68
2022/04/12 09:14:00;;;;;;;8.45;4.20;;;;;;;24.01;28.78;100871.72;5025852;28;20037;-67
2022/04/12 09:16:28;;;;;;;9.65;4.00;;;;;;;24.43;29.38;100870.34;5043124;28;20032;-68
2022/04/12 09:18:54;;;;;;;6.93;3.70;;;;;;;24.31;28.85;100875.69;5043193;28;20025;-68
2022/04/12 09:21:21;;;;;;;10.05;4.38;;;;;;;24.37;29.16;100871.63;5025890;28;20013;-68
2022/04/12 09:23:50;;;;;;;8.07;3.88;;;;;;;24.40;28.37;100865.38;5045725;28;20036;-67
2022/04/12 09:26:24;;;;;;;8.38;3.50;;;;;;;24.57;28.45;100859.00;5045208;28;20043;-68
2022/04/12 09:28:52;;;;;;;8.32;3.97;;;;;;;25.05;27.64;100841.28;5044668;28;20033;-67
2022/04/12 09:31:18;;;;;;;5.47;3.28;;;;;;;25.71;27.48;100846.78;5045889;28;20032;-67
2022/04/12 09:33:47;;;;;;;8.40;3.80;;;;;;;25.59;27.77;100853.06;5044461;28;20434;-67
2022/04/12 09:36:12;;;;;;;8.20;3.72;;;;;;;25.32;27.00;100846.63;5041950;28;20017;-67
2022/04/12 09:38:40;;;;;;;8.00;3.90;;;;;;;25.78;27.24;100836.69;5045056;28;20039;-68
2022/04/12 09:41:25;;;;;;;8.50;3.97;;;;;;;26.24;27.68;100837.91;5045283;28;20045;-67
2022/04/12 09:43:54;;;;;;;8.02;3.58;;;;;;;27.11;26.16;100834.66;5044284;28;20029;-67
2022/04/12 09:46:20;;;;;;;7.25;3.75;;;;;;;28.05;25.30;100829.34;5044140;28;20056;-68
2022/04/12 09:48:50;;;;;;;7.15;3.25;;;;;;;27.73;26.51;100842.31;5043330;28;20055;-67
2022/04/12 09:51:19;;;;;;;8.15;3.67;;;;;;;27.40;25.88;100845.06;5043954;28;20060;-67
2022/04/12 09:53:47;;;;;;;7.30;3.35;;;;;;;27.68;25.65;100843.31;5028820;28;20538;-66
2022/04/12 09:56:24;;;;;;;6.97;3.70;;;;;;;27.31;26.05;100847.94;5044016;28;20029;-67
2022/04/12 09:58:52;;;;;;;9.60;3.78;;;;;;;27.30;26.02;100846.28;5042857;28;20024;-70
2022/04/12 10:01:19;;;;;;;8.30;4.00;;;;;;;27.82;25.74;100848.69;5056125;28;20028;-69
2022/04/12 10:04:05;;;;;;;7.90;4.72;;;;;;;27.30;25.45;100854.75;5043070;28;20039;-69
2022/04/12 10:06:31;;;;;;;8.45;4.00;;;;;;;26.95;25.68;100851.31;5043298;28;20044;-70
2022/04/12 10:08:59;;;;;;;8.40;4.43;;;;;;;26.33;26.18;100858.41;5042886;28;20041;-70
2022/04/12 10:11:25;;;;;;;8.30;4.00;;;;;;;26.95;25.86;100850.50;5044252;28;20031;-69
2022/04/12 10:13:51;;;;;;;7.82;4.13;;;;;;;27.12;26.39;100850.44;5044564;28;20029;-71
2022/04/12 10:16:19;;;;;;;15.20;4.57;;;;;;;26.76;27.06;100834.84;5043949;28;20425;-70
2022/04/12 10:18:45;;;;;;;7.90;4.60;;;;;;;26.57;27.72;100835.31;5041794;28;20037;-73
2022/04/12 10:21:14;;;;;;;9.98;5.00;;;;;;;25.58;26.75;100828.91;5048056;28;20028;-71
2022/04/12 10:23:41;;;;;;;8.50;4.50;;;;;;;24.68;30.01;100818.22;5039618;28;20036;-73
2022/04/12 10:26:08;;;;;;;9.18;4.68;;;;;;;25.12;29.09;100801.47;5042420;28;20041;-72
2022/04/12 10:28:34;;;;;;;8.13;4.35;;;;;;;25.78;27.53;100808.56;5044447;28;20495;-72
2022/04/12 10:31:12;;;;;;;9.00;5.03;;;;;;;25.34;28.85;100793.72;5044412;28;20027;-71
2022/04/12 10:33:38;;;;;;;9.10;4.68;;;;;;;25.48;28.40;100793.50;5043412;28;20067;-73
2022/04/12 10:36:06;;;;;;;8.98;4.03;;;;;;;24.97;28.19;100797.94;5036641;28;20104;-73
2022/04/12 10:38:43;;;;;;;10.02;4.80;;;;;;;24.24;31.32;100797.59;5044406;28;20032;-73
2022/04/12 10:41:34;;;;;;;12.73;5.00;;;;;;;23.86;32.15;100796.41;5043964;28;20118;-73
2022/04/12 10:43:59;;;;;;;10.40;5.00;;;;;;;24.50;29.63;100797.69;5043882;28;20108;-73
2022/04/12 10:46:44;;;;;;;10.38;4.95;;;;;;;24.28;29.97;100795.78;5040283;28;20610;-73
2022/04/12 10:49:11;;;;;;;10.68;4.90;;;;;;;23.92;32.73;100797.91;5022605;28;20037;-69
2022/04/12 10:51:40;;;;;;;9.48;5.63;;;;;;;23.76;31.86;100795.50;5031045;28;20017;-74
2022/04/12 10:54:09;;;;;;;11.02;5.35;;;;;;;23.30;31.72;100798.63;5042641;28;20040;-74
2022/04/12 10:56:35;;;;;;;10.50;5.10;;;;;;;23.61;32.15;100787.47;5043759;28;20029;-75
2022/04/12 10:59:00;;;;;;;8.35;4.95;;;;;;;23.70;30.90;100781.94;5043741;28;20043;-74
2022/04/12 11:01:31;;;;;;;9.90;4.32;;;;;;;24.43;30.91;100777.72;5042680;28;20854;-74
2022/04/12 11:03:58;;;;;;;8.50;4.65;;;;;;;25.00;30.14;100768.38;5041690;28;20117;-72
2022/04/12 11:06:28;;;;;;;10.50;4.50;;;;;;;24.78;29.93;100767.34;5043003;28;20055;-72
2022/04/12 11:08:55;;;;;;;8.65;4.30;;;;;;;23.81;31.89;100770.13;5041832;28;20025;-73
2022/04/12 11:11:21;;;;;;;8.70;4.88;;;;;;;23.31;31.23;100763.84;5041553;28;20029;-72
2022/04/12 11:13:49;;;;;;;10.35;5.18;;;;;;;22.82;33.63;100775.94;5043268;28;20079;-73
2022/04/12 11:16:17;;;;;;;10.27;5.10;;;;;;;22.98;34.24;100794.06;5024953;28;20116;-73
2022/04/12 11:18:56;;;;;;;8.43;4.97;;;;;;;22.92;33.39;100792.53;5043884;28;20021;-73